createdAt,value
2023-04-17T00:01:45.069Z,27.63
2023-04-17T00:04:15.486Z,26.23
2023-04-17T00:06:46.314Z,26.92
2023-04-17T00:09:16.622Z,27.00
2023-04-17T00:11:46.945Z,30.15
2023-04-17T00:14:19.879Z,27.25
2023-04-17T00:16:50.262Z,26.30
2023-04-17T00:19:20.717Z,26.02
2023-04-17T00:21:51.141Z,29.08
2023-04-17T00:24:21.841Z,25.65
2023-04-17T00:26:52.181Z,25.33
2023-04-17T00:29:25.118Z,27.50
2023-04-17T00:31:55.393Z,21.92
2023-04-17T00:34:25.773Z,23.85
2023-04-17T00:36:56.048Z,25.60
2023-04-17T00:39:26.740Z,24.52
2023-04-17T00:41:57.719Z,24.20
2023-04-17T00:44:30.678Z,22.13
2023-04-17T00:47:01.022Z,25.73
2023-04-17T00:49:32.400Z,23.00
2023-04-17T00:52:02.953Z,26.40
2023-04-17T00:54:34.059Z,22.95
2023-04-17T00:57:04.395Z,26.15
2023-04-17T00:59:37.621Z,23.30
2023-04-17T01:02:08.128Z,23.42
2023-04-17T01:04:38.532Z,21.77
2023-04-17T01:07:08.871Z,26.63
2023-04-17T01:09:39.531Z,25.67
2023-04-17T01:12:25.658Z,28.23
2023-04-17T01:14:59.028Z,28.50
2023-04-17T01:17:29.604Z,26.90
2023-04-17T01:20:01.074Z,28.67
2023-04-17T01:22:31.397Z,27.67
2023-04-17T01:25:04.385Z,27.20
2023-04-17T01:27:35.374Z,31.38
2023-04-17T01:30:05.914Z,31.45
2023-04-17T01:32:36.698Z,32.67
2023-04-17T01:35:07.471Z,30.25
2023-04-17T01:37:37.952Z,32.22
2023-04-17T01:40:12.024Z,31.85
2023-04-17T01:42:42.339Z,27.77
2023-04-17T01:45:13.069Z,26.60
2023-04-17T01:47:43.355Z,32.08
2023-04-17T01:50:14.324Z,27.40
2023-04-17T01:52:45.415Z,29.83
2023-04-17T01:55:18.546Z,30.17
2023-04-17T01:57:48.810Z,31.50
2023-04-17T02:00:19.908Z,30.33
2023-04-17T02:02:50.381Z,31.52
2023-04-17T02:05:21.400Z,34.50
2023-04-17T02:07:53.625Z,37.53
2023-04-17T02:10:26.560Z,34.00
2023-04-17T02:12:56.867Z,36.65
2023-04-17T02:15:27.339Z,33.75
2023-04-17T02:17:57.691Z,34.30
2023-04-17T02:20:28.317Z,30.33
2023-04-17T02:22:58.873Z,31.40
2023-04-17T02:25:31.800Z,28.08
2023-04-17T02:28:02.144Z,29.33
2023-04-17T02:30:32.748Z,26.92
2023-04-17T02:33:03.082Z,25.15
2023-04-17T02:35:34.325Z,27.77
2023-04-17T02:40:37.244Z,29.88
2023-04-17T02:43:07.542Z,26.65
2023-04-17T02:45:37.877Z,25.73
2023-04-17T02:48:08.383Z,32.42
2023-04-17T02:50:38.855Z,27.63
2023-04-17T02:53:09.661Z,31.40
2023-04-17T02:55:42.884Z,26.80
2023-04-17T02:58:13.625Z,29.15
2023-04-17T03:00:44.175Z,34.25
2023-04-17T03:03:14.692Z,32.65
2023-04-17T03:05:45.338Z,30.08
2023-04-17T03:08:15.643Z,30.85
2023-04-17T03:10:48.556Z,26.85
2023-04-17T03:13:18.844Z,30.40
2023-04-17T03:15:49.397Z,32.58
2023-04-17T03:18:20.155Z,30.30
2023-04-17T03:20:50.588Z,28.95
2023-04-17T03:23:20.924Z,31.27
2023-04-17T03:25:54.183Z,26.60
2023-04-17T03:28:24.833Z,31.08
2023-04-17T03:30:55.944Z,30.40
2023-04-17T03:33:26.522Z,30.52
2023-04-17T03:35:56.902Z,32.95
2023-04-17T03:38:27.210Z,29.77
2023-04-17T03:41:00.139Z,32.10
2023-04-17T03:43:30.558Z,32.53
2023-04-17T03:46:01.858Z,31.45
2023-04-17T03:48:32.179Z,32.63
2023-04-17T03:51:02.669Z,32.97
2023-04-17T03:53:33.468Z,35.70
2023-04-17T03:56:06.654Z,34.78
2023-04-17T03:58:36.948Z,31.25
2023-04-17T04:01:11.125Z,30.55
2023-04-17T04:03:41.713Z,37.20
2023-04-17T04:06:12.315Z,40.00
2023-04-17T04:08:43.073Z,34.38
2023-04-17T04:11:16.528Z,25.33
2023-04-17T04:13:46.817Z,26.67
2023-04-17T04:16:17.186Z,23.13
2023-04-17T04:18:47.560Z,17.40
2023-04-17T04:21:17.896Z,19.73
2023-04-17T04:23:49.996Z,21.67
2023-04-17T04:26:24.620Z,24.13
2023-04-17T04:28:54.922Z,18.85
2023-04-17T04:31:25.805Z,21.67
2023-04-17T04:33:56.995Z,23.20
2023-04-17T04:36:30.437Z,21.08
2023-04-17T04:39:02.283Z,25.00
2023-04-17T04:41:36.240Z,21.13
2023-04-17T04:44:06.512Z,22.65
2023-04-17T04:46:36.943Z,20.65
2023-04-17T04:49:07.263Z,16.40
2023-04-17T04:51:37.732Z,17.23
2023-04-17T04:54:08.021Z,17.20
2023-04-17T04:56:45.054Z,17.00
2023-04-17T04:59:15.455Z,18.05
2023-04-17T05:01:45.940Z,17.85
2023-04-17T05:04:16.370Z,16.38
2023-04-17T05:06:46.804Z,15.10
2023-04-17T05:09:17.440Z,15.63
2023-04-17T05:11:50.811Z,18.45
2023-04-17T05:14:21.094Z,17.15
2023-04-17T05:16:51.426Z,17.50
2023-04-17T05:19:21.902Z,19.50
2023-04-17T05:21:52.208Z,17.17
2023-04-17T05:24:22.513Z,18.05
2023-04-17T05:26:55.499Z,20.55
2023-04-17T05:29:27.617Z,19.13
2023-04-17T05:31:58.050Z,23.27
2023-04-17T05:34:28.477Z,14.25
2023-04-17T05:36:58.821Z,20.20
2023-04-17T05:39:29.106Z,19.55
2023-04-17T05:42:02.251Z,21.17
2023-04-17T05:44:32.524Z,19.70
2023-04-17T05:47:03.645Z,23.45
2023-04-17T05:49:34.015Z,20.42
2023-04-17T05:52:04.463Z,17.80
2023-04-17T05:54:34.765Z,22.38
2023-04-17T05:57:07.770Z,20.95
2023-04-17T05:59:38.025Z,18.88
2023-04-17T06:02:08.534Z,14.20
2023-04-17T06:04:39.204Z,14.32
2023-04-17T06:07:10.603Z,17.02
2023-04-17T06:09:41.443Z,18.23
2023-04-17T06:12:16.523Z,14.63
2023-04-17T06:14:46.851Z,14.70
2023-04-17T06:17:17.277Z,15.73
2023-04-17T06:19:47.550Z,19.05
2023-04-17T06:22:18.023Z,22.45
2023-04-17T06:24:48.558Z,23.92
2023-04-17T06:27:21.594Z,16.13
2023-04-17T06:29:51.867Z,17.63
2023-04-17T06:32:22.269Z,14.15
2023-04-17T06:34:59.162Z,10.95
2023-04-17T06:37:30.055Z,18.95
2023-04-17T06:40:00.378Z,19.00
2023-04-17T06:42:35.241Z,15.85
2023-04-17T06:45:05.591Z,17.27
2023-04-17T06:47:35.943Z,16.92
2023-04-17T06:50:06.464Z,15.30
2023-04-17T06:52:36.808Z,13.15
2023-04-17T06:55:07.242Z,20.00
2023-04-17T06:57:40.238Z,17.35
2023-04-17T07:00:11.117Z,20.17
2023-04-17T07:02:41.577Z,11.05
2023-04-17T07:05:12.410Z,24.38
2023-04-17T07:07:42.733Z,22.75
2023-04-17T07:10:16.222Z,20.63
2023-04-17T07:12:49.238Z,23.25
2023-04-17T07:15:19.615Z,17.27
2023-04-17T07:17:50.038Z,17.05
2023-04-17T07:20:20.450Z,23.23
2023-04-17T07:22:51.225Z,20.35
2023-04-17T07:25:21.635Z,21.33
2023-04-17T07:27:54.557Z,22.75
2023-04-17T07:30:24.873Z,20.52
2023-04-17T07:32:55.374Z,22.65
2023-04-17T07:35:26.142Z,13.98
2023-04-17T07:37:58.388Z,19.95
2023-04-17T07:40:28.713Z,23.95
2023-04-17T07:43:01.685Z,23.85
2023-04-17T07:45:31.994Z,20.73
2023-04-17T07:48:02.414Z,20.55
2023-04-17T07:50:32.858Z,20.23
2023-04-17T07:53:03.443Z,22.15
2023-04-17T07:55:33.813Z,18.50
2023-04-17T07:58:06.835Z,22.23
2023-04-17T08:00:37.167Z,21.60
2023-04-17T08:03:07.770Z,21.60
2023-04-17T08:05:38.551Z,21.50
2023-04-17T08:08:09.262Z,21.80
2023-04-17T08:10:39.646Z,20.52
2023-04-17T08:13:12.696Z,20.75
2023-04-17T08:15:44.173Z,19.77
2023-04-17T08:18:15.863Z,21.23
2023-04-17T08:20:46.232Z,15.18
2023-04-17T08:23:16.576Z,22.10
2023-04-17T08:25:48.608Z,23.63
2023-04-17T08:28:21.714Z,22.20
2023-04-17T08:30:52.105Z,15.40
2023-04-17T08:33:22.551Z,13.38
2023-04-17T08:35:52.882Z,19.48
2023-04-17T08:38:23.190Z,25.00
2023-04-17T08:40:54.098Z,27.92
2023-04-17T08:43:27.574Z,28.85
2023-04-17T08:45:57.986Z,25.55
2023-04-17T08:48:28.696Z,24.42
2023-04-17T08:50:59.053Z,24.38
2023-04-17T08:53:29.378Z,22.23
2023-04-17T08:56:02.291Z,23.20
2023-04-17T08:58:38.808Z,20.85
2023-04-17T09:01:13.447Z,24.98
2023-04-17T09:03:45.034Z,20.17
2023-04-17T09:06:16.201Z,24.05
2023-04-17T09:08:58.132Z,21.77
2023-04-17T09:11:28.940Z,19.08
2023-04-17T09:14:01.942Z,21.20
2023-04-17T09:16:32.321Z,19.58
2023-04-17T09:19:09.410Z,21.13
2023-04-17T09:21:39.865Z,21.52
2023-04-17T09:24:10.662Z,17.02
2023-04-17T09:26:41.098Z,23.58
2023-04-17T09:29:14.904Z,23.77
2023-04-17T09:31:47.822Z,20.00
2023-04-17T09:34:18.334Z,23.98
2023-04-17T09:36:48.626Z,20.42
2023-04-17T09:39:24.522Z,23.48
2023-04-17T09:42:06.392Z,22.20
2023-04-17T09:44:40.568Z,24.50
2023-04-17T09:47:11.492Z,20.35
2023-04-17T09:49:42.874Z,18.65
2023-04-17T09:52:13.460Z,20.75
2023-04-17T09:54:44.328Z,22.27
2023-04-17T09:57:14.648Z,24.60
2023-04-17T09:59:49.221Z,22.80
2023-04-17T10:02:20.525Z,16.75
2023-04-17T10:04:51.216Z,16.52
2023-04-17T10:07:21.543Z,25.10
2023-04-17T10:09:51.909Z,22.13
2023-04-17T10:12:23.442Z,22.45
2023-04-17T10:14:56.674Z,20.63
2023-04-17T10:17:28.834Z,22.23
2023-04-17T10:20:01.116Z,20.73
2023-04-17T10:22:41.249Z,18.88
2023-04-17T10:25:22.406Z,20.33
2023-04-17T10:27:54.018Z,22.35
2023-04-17T10:30:27.069Z,19.67
2023-04-17T10:33:12.332Z,21.77
2023-04-17T10:35:42.890Z,20.42
2023-04-17T10:38:13.195Z,12.88
2023-04-17T10:40:46.870Z,18.48
2023-04-17T10:43:18.034Z,23.42
2023-04-17T10:46:01.182Z,18.30
2023-04-17T10:48:33.335Z,20.27
2023-04-17T10:51:04.199Z,19.80
2023-04-17T10:53:41.646Z,15.20
2023-04-17T10:56:12.677Z,19.08
2023-04-17T11:01:16.508Z,18.77
2023-04-17T11:03:46.932Z,20.67
2023-04-17T11:06:17.812Z,10.68
2023-04-17T11:08:48.396Z,18.50
2023-04-17T11:11:30.487Z,17.88
2023-04-17T11:14:14.219Z,18.95
2023-04-17T11:16:48.696Z,16.83
2023-04-17T11:19:21.688Z,18.58
2023-04-17T11:21:52.892Z,16.40
2023-04-17T11:24:26.917Z,16.05
2023-04-17T11:26:57.979Z,14.63
2023-04-17T11:29:28.274Z,18.10
2023-04-17T11:32:01.778Z,16.48
2023-04-17T11:34:32.070Z,9.65
2023-04-17T11:37:03.804Z,16.17
2023-04-17T11:39:34.983Z,13.52
2023-04-17T11:42:05.650Z,18.88
2023-04-17T11:44:36.070Z,17.45
2023-04-17T11:47:09.217Z,16.25
2023-04-17T11:49:41.995Z,13.15
2023-04-17T11:52:12.332Z,17.25
2023-04-17T11:54:42.660Z,19.15
2023-04-17T11:57:15.626Z,15.68
2023-04-17T11:59:46.565Z,11.95
2023-04-17T12:04:50.140Z,15.15
2023-04-17T12:07:26.034Z,10.88
2023-04-17T12:09:59.788Z,16.52
2023-04-17T12:12:31.337Z,15.57
2023-04-17T12:15:02.070Z,17.83
2023-04-17T12:17:32.621Z,16.00
2023-04-17T12:20:06.188Z,17.48
2023-04-17T12:22:36.559Z,12.90
2023-04-17T12:25:06.933Z,16.75
2023-04-17T12:27:40.101Z,12.13
2023-04-17T12:30:11.181Z,13.60
2023-04-17T12:32:43.073Z,11.95
2023-04-17T12:35:16.194Z,11.00
2023-04-17T12:37:48.761Z,13.27
2023-04-17T12:40:21.168Z,11.75
2023-04-17T12:42:53.270Z,11.60
2023-04-17T12:47:53.867Z,14.05
2023-04-17T12:50:27.367Z,9.43
2023-04-17T12:52:57.704Z,14.48
2023-04-17T12:55:28.243Z,17.52
2023-04-17T12:57:58.577Z,15.45
2023-04-17T13:00:29.017Z,14.70
2023-04-17T13:02:59.450Z,16.17
2023-04-17T13:05:33.059Z,11.07
2023-04-17T13:08:03.809Z,18.63
2023-04-17T13:10:34.510Z,14.82
2023-04-17T13:13:05.312Z,18.35
2023-04-17T13:15:35.682Z,18.50
2023-04-17T13:18:06.226Z,15.00
2023-04-17T13:20:39.171Z,11.13
2023-04-17T13:23:12.058Z,7.25
2023-04-17T13:25:42.450Z,13.25
2023-04-17T13:28:12.888Z,15.35
2023-04-17T13:30:43.255Z,12.38
2023-04-17T13:33:13.572Z,12.23
2023-04-17T13:35:46.549Z,14.98
2023-04-17T13:38:16.874Z,16.30
2023-04-17T13:40:47.514Z,12.68
2023-04-17T13:43:18.221Z,10.30
2023-04-17T13:45:49.832Z,8.98
2023-04-17T13:48:20.340Z,13.70
2023-04-17T13:50:54.402Z,12.50
2023-04-17T13:53:24.812Z,8.45
2023-04-17T13:55:55.383Z,12.82
2023-04-17T13:58:25.729Z,13.73
2023-04-17T14:00:56.036Z,14.32
2023-04-17T14:03:26.689Z,15.88
2023-04-17T14:05:59.848Z,13.65
2023-04-17T14:08:30.180Z,11.27
2023-04-17T14:11:00.686Z,14.10
2023-04-17T14:13:31.131Z,14.05
2023-04-17T14:16:01.565Z,16.33
2023-04-17T14:18:32.245Z,17.17
2023-04-17T14:21:05.240Z,14.73
2023-04-17T14:23:35.584Z,15.40
2023-04-17T14:26:07.227Z,13.07
2023-04-17T14:28:37.604Z,18.23
2023-04-17T14:31:08.062Z,15.55
2023-04-17T14:33:38.457Z,16.70
2023-04-17T14:36:11.669Z,15.00
2023-04-17T14:38:42.058Z,11.77
2023-04-17T14:41:12.421Z,17.17
2023-04-17T14:43:42.783Z,14.60
2023-04-17T14:46:13.231Z,15.93
2023-04-17T14:48:54.856Z,17.63
2023-04-17T14:51:30.252Z,14.20
2023-04-17T14:54:01.331Z,10.40
2023-04-17T14:56:31.747Z,10.98
2023-04-17T14:59:02.174Z,10.75
2023-04-17T15:01:32.499Z,10.45
2023-04-17T15:04:03.983Z,13.88
2023-04-17T15:06:38.270Z,14.55
2023-04-17T15:09:08.905Z,13.18
2023-04-17T15:11:39.205Z,16.00
2023-04-17T15:14:09.620Z,10.77
2023-04-17T15:16:39.973Z,9.18
2023-04-17T15:19:10.491Z,18.25
2023-04-17T15:21:43.480Z,11.07
2023-04-17T15:24:13.823Z,8.85
2023-04-17T15:26:45.162Z,9.00
2023-04-17T15:29:15.681Z,9.90
2023-04-17T15:31:46.067Z,13.52
2023-04-17T15:34:16.508Z,15.35
2023-04-17T15:36:50.830Z,11.20
2023-04-17T15:39:21.222Z,16.10
2023-04-17T15:41:51.849Z,14.60
2023-04-17T15:44:22.234Z,12.55
2023-04-17T15:46:52.541Z,11.73
2023-04-17T15:49:25.475Z,12.52
2023-04-17T15:51:58.564Z,14.30
2023-04-17T15:54:28.865Z,12.73
2023-04-17T15:56:59.776Z,14.40
2023-04-17T16:02:00.304Z,12.70
2023-04-17T16:04:31.010Z,13.18
2023-04-17T16:07:04.195Z,10.38
2023-04-17T16:09:34.534Z,11.45
2023-04-17T16:12:08.478Z,11.85
2023-04-17T16:14:38.988Z,13.65
2023-04-17T16:17:09.346Z,8.00
2023-04-17T16:19:39.718Z,12.82
2023-04-17T16:22:12.645Z,8.50
2023-04-17T16:24:43.042Z,8.10
2023-04-17T16:27:13.322Z,7.80
2023-04-17T16:29:43.680Z,13.73
2023-04-17T16:32:14.484Z,10.18
2023-04-17T16:37:17.715Z,12.13
2023-04-17T16:39:48.638Z,12.95
2023-04-17T16:42:18.942Z,12.25
2023-04-17T16:44:49.509Z,9.65
2023-04-17T16:47:19.927Z,9.88
2023-04-17T16:49:50.317Z,8.43
2023-04-17T16:52:23.208Z,8.90
2023-04-17T16:54:53.541Z,7.50
2023-04-17T16:57:23.926Z,8.32
2023-04-17T16:59:54.313Z,9.35
2023-04-17T17:02:24.716Z,9.38
2023-04-17T17:04:55.255Z,10.68
2023-04-17T17:07:28.237Z,11.02
2023-04-17T17:09:58.629Z,8.52
2023-04-17T17:12:29.042Z,7.10
2023-04-17T17:14:59.700Z,4.75
2023-04-17T17:17:30.083Z,8.05
2023-04-17T17:20:00.590Z,9.13
2023-04-17T17:22:33.530Z,6.60
2023-04-17T17:25:03.912Z,10.77
2023-04-17T17:27:34.232Z,10.43
2023-04-17T17:30:04.597Z,12.85
2023-04-17T17:32:35.021Z,9.45
2023-04-17T17:35:05.412Z,10.95
2023-04-17T17:37:38.324Z,10.52
2023-04-17T17:40:09.401Z,9.50
2023-04-17T17:42:39.730Z,7.93
2023-04-17T17:45:10.674Z,12.93
2023-04-17T17:50:11.921Z,11.57
2023-04-17T17:52:44.809Z,12.10
2023-04-17T17:55:17.733Z,14.13
2023-04-17T17:57:49.683Z,8.18
2023-04-17T18:00:20.833Z,13.50
2023-04-17T18:02:51.290Z,11.90
2023-04-17T18:05:22.005Z,12.95
2023-04-17T18:07:54.957Z,14.68
2023-04-17T18:10:25.328Z,14.10
2023-04-17T18:12:55.721Z,17.92
2023-04-17T18:15:26.154Z,14.57
2023-04-17T18:17:56.504Z,14.98
2023-04-17T18:20:27.021Z,13.30
2023-04-17T18:22:59.940Z,13.52
2023-04-17T18:25:30.306Z,20.35
2023-04-17T18:28:00.653Z,20.95
2023-04-17T18:30:31.151Z,16.33
2023-04-17T18:33:01.541Z,14.05
2023-04-17T18:35:31.960Z,21.98
2023-04-17T18:38:04.915Z,16.17
2023-04-17T18:40:36.684Z,16.38
2023-04-17T18:43:07.159Z,15.45
2023-04-17T18:45:37.562Z,16.67
2023-04-17T18:48:09.052Z,14.13
2023-04-17T18:50:40.424Z,17.38
2023-04-17T18:53:13.339Z,19.38
2023-04-17T18:55:43.785Z,18.58
2023-04-17T18:58:14.086Z,18.25
2023-04-17T19:00:44.533Z,12.23
2023-04-17T19:03:15.094Z,17.70
2023-04-17T19:05:45.800Z,15.68
2023-04-17T19:08:18.787Z,17.38
2023-04-17T19:10:49.140Z,17.77
2023-04-17T19:13:19.425Z,17.05
2023-04-17T19:15:49.851Z,17.02
2023-04-17T19:18:20.225Z,16.80
2023-04-17T19:20:50.856Z,17.08
2023-04-17T19:23:23.782Z,15.70
2023-04-17T19:25:55.392Z,20.13
2023-04-17T19:28:26.279Z,17.08
2023-04-17T19:30:57.989Z,19.88
2023-04-17T19:33:28.316Z,17.45
2023-04-17T19:35:58.685Z,13.73
2023-04-17T19:38:31.648Z,18.73
2023-04-17T19:41:14.890Z,11.88
2023-04-17T19:43:46.209Z,15.55
2023-04-17T19:48:46.955Z,15.73
2023-04-17T19:51:17.844Z,14.60
2023-04-17T19:53:53.348Z,16.10
2023-04-17T19:56:23.724Z,13.80
2023-04-17T19:58:54.118Z,16.52
2023-04-17T20:01:24.609Z,11.88
2023-04-17T20:03:55.013Z,16.20
2023-04-17T20:06:28.351Z,14.43
2023-04-17T20:09:03.366Z,14.50
2023-04-17T20:11:33.751Z,13.75
2023-04-17T20:14:04.132Z,15.90
2023-04-17T20:16:34.980Z,14.07
2023-04-17T20:19:05.296Z,13.05
2023-04-17T20:21:35.684Z,13.80
2023-04-17T20:24:08.754Z,12.45
2023-04-17T20:26:39.108Z,16.13
2023-04-17T20:29:09.424Z,13.40
2023-04-17T20:31:39.941Z,14.07
2023-04-17T20:34:10.422Z,16.90
2023-04-17T20:36:40.778Z,13.90
2023-04-17T20:39:13.992Z,13.82
2023-04-17T20:41:44.903Z,12.65
2023-04-17T20:44:16.679Z,16.38
2023-04-17T20:46:47.191Z,15.20
2023-04-17T20:49:17.660Z,14.25
2023-04-17T20:51:48.062Z,60.40
2023-04-17T20:54:21.034Z,28.30
2023-04-17T20:56:51.434Z,17.38
2023-04-17T20:59:21.809Z,17.17
2023-04-17T21:01:52.778Z,33.00
2023-04-17T21:06:53.381Z,50.92
2023-04-17T21:09:26.533Z,53.22
2023-04-17T21:11:56.912Z,34.42
2023-04-17T21:14:28.241Z,37.08
2023-04-17T21:16:59.351Z,28.30
2023-04-17T21:22:01.600Z,43.70
2023-04-17T21:24:34.604Z,23.50
2023-04-17T21:27:04.943Z,20.85
2023-04-17T21:29:35.232Z,18.55
2023-04-17T21:32:05.694Z,19.90
2023-04-17T21:34:36.038Z,15.65
2023-04-17T21:37:06.483Z,16.75
2023-04-17T21:39:39.865Z,20.65
2023-04-17T21:42:10.298Z,20.30
2023-04-17T21:44:40.702Z,15.90
2023-04-17T21:47:11.217Z,33.78
2023-04-17T21:49:41.506Z,22.08
2023-04-17T21:52:11.902Z,18.58
2023-04-17T21:54:44.904Z,15.52
2023-04-17T21:57:15.278Z,16.92
2023-04-17T21:59:45.627Z,14.55
2023-04-17T22:02:16.111Z,16.48
2023-04-17T22:04:46.484Z,18.30
2023-04-17T22:07:18.650Z,21.90
2023-04-17T22:09:51.585Z,16.80
2023-04-17T22:12:22.347Z,18.13
2023-04-17T22:14:52.859Z,14.43
2023-04-17T22:17:23.213Z,20.05
2023-04-17T22:19:55.885Z,19.27
2023-04-17T22:22:26.332Z,20.08
2023-04-17T22:24:59.244Z,16.58
2023-04-17T22:27:29.571Z,18.95
2023-04-17T22:29:59.942Z,16.20
2023-04-17T22:32:30.318Z,18.88
2023-04-17T22:35:00.620Z,19.88
2023-04-17T22:37:31.080Z,20.25
2023-04-17T22:40:04.790Z,22.52
2023-04-17T22:42:35.170Z,17.88
2023-04-17T22:45:05.474Z,12.55
2023-04-17T22:47:36.100Z,15.63
2023-04-17T22:50:06.601Z,21.38
2023-04-17T22:52:37.488Z,23.23
2023-04-17T22:55:11.165Z,15.23
2023-04-17T22:57:41.528Z,22.50
2023-04-17T23:00:12.820Z,23.60
2023-04-17T23:05:13.396Z,22.58
2023-04-17T23:07:43.804Z,20.52
2023-04-17T23:10:16.858Z,17.90
2023-04-17T23:12:47.200Z,23.75
2023-04-17T23:15:17.512Z,20.30
2023-04-17T23:17:47.900Z,20.67
2023-04-17T23:20:18.262Z,20.73
2023-04-17T23:22:48.603Z,21.20
2023-04-17T23:25:21.540Z,22.48
2023-04-17T23:27:51.899Z,27.67
2023-04-17T23:30:22.320Z,23.80
2023-04-17T23:32:53.875Z,13.05
2023-04-17T23:35:24.474Z,20.98
2023-04-17T23:37:54.855Z,24.85
2023-04-17T23:40:28.382Z,23.45
2023-04-17T23:42:58.966Z,20.55
2023-04-17T23:45:29.320Z,19.90
2023-04-17T23:47:59.791Z,22.38
2023-04-17T23:50:30.240Z,18.85
2023-04-17T23:53:00.753Z,18.25
2023-04-17T23:55:33.681Z,21.63
2023-04-17T23:58:04.092Z,22.40
